PAJ weather

Parachinar Airport
Parachinar, Federally Administered Tribal Areas, Pakistan

Public forecast

Using degrees Celsius for public forecast. Weather courtesy of forecast.io.

METAR (pilot weather report)

Closest report is Hamid Karzai International Airport, 58.4 nm (108.1 km) NW. Retrieved 2019/08/23 17:50 UTC (55 minutes ago):

OAKB 231750Z VRB03KT 9999 FEW100 BKN160 24/07 Q1016 NOSIG RMK A3001 BLU BLU

TAF (pilot weather forecast)

Closest forecast is Jalalabad Airport, 36.6 nm (67.9 km) NE. Retrieved 2019/08/23 16:12 UTC (3 hours ago):

TAF OAJL 231600Z 2316/2422 09006KT 9000 HZ FEW150 QNH2964INS BECMG 2320/2321 09006KT 6000 HZ FEW150 QNH2965INS BECMG 2407/2408 24012KT 9999 NSW SCT080 QNH2967INS BECMG 2414/2415 10006KT 9999 FEW180 QNH2961INS BECMG 2420/2421 10006KT 9000 HZ FEW180 QNH2966INS TX38/2410Z TN25/2401Z